createdAt,value
2019-04-10T00:01:34.096Z,6.4
2019-04-10T00:07:11.748Z,6.4
2019-04-10T00:12:36.039Z,6.4
2019-04-10T00:18:07.436Z,5.9
2019-04-10T00:23:39.394Z,5.1
2019-04-10T00:29:09.591Z,5
2019-04-10T00:34:40.683Z,5.5
2019-04-10T00:40:12.055Z,4.3
2019-04-10T00:45:43.969Z,4.6
2019-04-10T00:51:14.906Z,5
2019-04-10T00:56:45.347Z,5.2
2019-04-10T01:02:16.528Z,5.2
2019-04-10T01:07:48.548Z,5.1
2019-04-10T01:13:18.824Z,5.1
2019-04-10T01:18:49.853Z,4.7
2019-04-10T01:24:21.643Z,4.5
2019-04-10T01:29:52.096Z,4.4
2019-04-10T01:35:23.132Z,4.5
2019-04-10T01:40:55.316Z,4.4
2019-04-10T01:46:26.348Z,4.6
2019-04-10T01:51:57.317Z,4.1
2019-04-10T01:57:28.382Z,5
2019-04-10T02:02:58.447Z,4.6
2019-04-10T02:08:29.820Z,4.7
2019-04-10T02:14:00.697Z,5
2019-04-10T02:19:32.271Z,5.2
2019-04-10T02:25:03.380Z,5
2019-04-10T02:30:34.620Z,5.1
2019-04-10T02:36:05.665Z,5.1
2019-04-10T02:41:36.486Z,5.1
2019-04-10T02:47:07.563Z,4.5
2019-04-10T02:52:41.020Z,4.4
2019-04-10T02:58:09.843Z,4.7
2019-04-10T03:03:42.341Z,4.7
2019-04-10T03:09:28.716Z,4.7
2019-04-10T03:14:44.976Z,4.4
2019-04-10T03:20:14.209Z,4.5
2019-04-10T03:25:45.439Z,4.7
2019-04-10T03:31:16.337Z,4.8
2019-04-10T03:36:47.603Z,4.9
2019-04-10T03:42:18.935Z,4.7
2019-04-10T03:47:49.783Z,4.4
2019-04-10T03:53:20.918Z,4.2
2019-04-10T03:58:52.109Z,4
2019-04-10T04:04:23.720Z,4
2019-04-10T04:09:54.192Z,4
2019-04-10T04:15:26.102Z,4.5
2019-04-10T04:20:56.349Z,4.6
2019-04-10T04:26:28.202Z,5
2019-04-10T04:31:59.083Z,4.8
2019-04-10T04:37:30.128Z,4.6
2019-04-10T04:43:00.897Z,4.5
2019-04-10T04:48:31.903Z,4.4
2019-04-10T04:54:02.962Z,4.5
2019-04-10T04:59:34.581Z,4.3
2019-04-10T05:05:05.118Z,4.4
2019-04-10T05:10:36.270Z,5.1
2019-04-10T05:16:08.166Z,4.6
2019-04-10T05:21:38.479Z,4.6
2019-04-10T05:27:09.848Z,5.6
2019-04-10T05:32:41.752Z,5.8
2019-04-10T05:38:12.256Z,5.6
2019-04-10T05:43:43.019Z,6
2019-04-10T05:49:14.938Z,5.7
2019-04-10T05:54:45.558Z,5.4
2019-04-10T06:00:16.917Z,5.2
2019-04-10T06:05:48.627Z,4.6
2019-04-10T06:11:20.430Z,3.8
2019-04-10T06:16:51.024Z,3.9
2019-04-10T06:22:22.778Z,4.2
2019-04-10T06:27:53.043Z,4.5
2019-04-10T06:33:25.789Z,4.8
2019-04-10T06:38:56.869Z,5.1
2019-04-10T06:44:30.015Z,5.3
2019-04-10T06:50:02.391Z,5.5
2019-04-10T06:55:33.539Z,6.2
2019-04-10T07:01:06.313Z,6.6
2019-04-10T07:06:49.695Z,7.2
2019-04-10T07:12:10.517Z,7.6
2019-04-10T07:17:43.239Z,8.4
2019-04-10T07:23:21.879Z,9.2
2019-04-10T07:28:49.221Z,8.8
2019-04-10T07:34:25.139Z,8.7
2019-04-10T07:39:55.133Z,8.5
2019-04-10T07:45:27.944Z,8.7
2019-04-10T07:51:01.155Z,8.5
2019-04-10T07:56:35.352Z,8.8
2019-04-10T08:02:08.753Z,9.5
2019-04-10T08:07:41.383Z,9.4
2019-04-10T08:13:14.790Z,9.4
2019-04-10T08:18:48.249Z,10
2019-04-10T08:24:21.737Z,10
2019-04-10T08:29:55.291Z,9.5
2019-04-10T08:35:29.345Z,9.9
2019-04-10T08:41:02.803Z,10.1
2019-04-10T08:46:36.115Z,11.1
2019-04-10T08:52:10.336Z,11.8
2019-04-10T08:57:43.867Z,10.3
2019-04-10T09:03:17.549Z,10.4
2019-04-10T09:08:51.511Z,10
2019-04-10T09:14:26.211Z,10.7
2019-04-10T09:19:58.686Z,11.4
2019-04-10T09:25:31.795Z,11
2019-04-10T09:31:05.625Z,11.7
2019-04-10T09:36:39.612Z,11.7
2019-04-10T09:42:12.910Z,12.6
2019-04-10T09:47:48.037Z,12.1
2019-04-10T09:53:21.272Z,11.6
2019-04-10T09:58:56.650Z,11.6
2019-04-10T10:04:29.460Z,11.8
2019-04-10T10:10:04.215Z,11.2
2019-04-10T10:15:37.645Z,11.4
2019-04-10T10:21:10.868Z,11.6
2019-04-10T10:26:46.396Z,11.7
2019-04-10T10:32:19.183Z,13.4
2019-04-10T10:37:52.801Z,12.7
2019-04-10T10:43:27.110Z,11.9
2019-04-10T10:49:02.264Z,12.5
2019-04-10T10:54:36.861Z,12.1
2019-04-10T11:00:12.749Z,13
2019-04-10T11:05:44.527Z,12.9
2019-04-10T11:11:19.920Z,12.6
2019-04-10T11:16:53.663Z,12.8
2019-04-10T11:22:27.109Z,12.2
2019-04-10T11:28:01.170Z,12.9
2019-04-10T11:33:34.788Z,12.5
2019-04-10T11:39:16.645Z,12.4
2019-04-10T11:44:45.251Z,12.8
2019-04-10T11:50:18.266Z,13.1
2019-04-10T11:55:52.925Z,13
2019-04-10T12:01:25.342Z,12.9
2019-04-10T12:07:00.178Z,13
2019-04-10T12:12:31.419Z,12.4
2019-04-10T12:18:05.056Z,12.4
2019-04-10T12:23:38.644Z,12.5
2019-04-10T12:29:12.348Z,12.3
2019-04-10T12:34:50.773Z,12.5
2019-04-10T12:40:23.696Z,12.8
2019-04-10T12:45:57.160Z,12.5
2019-04-10T12:51:31.885Z,12.8
2019-04-10T12:57:04.313Z,13.1
2019-04-10T13:02:38.603Z,12.9
2019-04-10T13:08:20.359Z,12.9
2019-04-10T13:13:44.965Z,13.1
2019-04-10T13:19:18.806Z,13.1
2019-04-10T13:24:52.357Z,13.4
2019-04-10T13:30:27.027Z,13.3
2019-04-10T13:36:00.038Z,13
2019-04-10T13:41:34.492Z,13.4
2019-04-10T13:47:07.831Z,13.6
2019-04-10T13:52:42.592Z,13.5
2019-04-10T13:58:15.872Z,13.2
2019-04-10T14:03:50.326Z,12.9
2019-04-10T14:09:34.060Z,12.8
2019-04-10T14:14:57.418Z,12.4
2019-04-10T14:20:30.928Z,12.3
2019-04-10T14:26:04.326Z,12.2
2019-04-10T14:31:36.472Z,11.9
2019-04-10T14:37:09.721Z,11.7
2019-04-10T14:42:42.917Z,11.7
2019-04-10T14:48:16.142Z,11.7
2019-04-10T14:53:49.145Z,11.7
2019-04-10T14:59:22.223Z,11.7
2019-04-10T15:04:55.412Z,11.6
2019-04-10T15:10:28.341Z,11.6
2019-04-10T15:16:01.451Z,11.6
2019-04-10T15:21:34.689Z,11.5
2019-04-10T15:27:07.441Z,11.4
2019-04-10T15:32:40.440Z,11.4
2019-04-10T15:38:13.778Z,11.3
2019-04-10T15:43:46.364Z,11.3
2019-04-10T15:49:19.459Z,11.1
2019-04-10T15:54:53.771Z,11.1
2019-04-10T16:00:25.388Z,10.9
2019-04-10T16:05:58.084Z,11
2019-04-10T16:11:31.926Z,11
2019-04-10T16:17:04.677Z,10.7
2019-04-10T16:22:36.656Z,10.6
2019-04-10T16:28:10.986Z,10.6
2019-04-10T16:33:43.331Z,10.6
2019-04-10T16:39:15.507Z,10.5
2019-04-10T16:44:49.098Z,10.5
2019-04-10T16:50:21.606Z,10.4
2019-04-10T16:55:53.655Z,10.4
2019-04-10T17:01:26.782Z,10.3
2019-04-10T17:06:59.161Z,10.2
2019-04-10T17:12:33.773Z,10.3
2019-04-10T17:18:04.639Z,10.2
2019-04-10T17:23:37.384Z,10.2
2019-04-10T17:29:09.700Z,10.2
2019-04-10T17:34:43.075Z,10.1
2019-04-10T17:40:27.108Z,10
2019-04-10T17:45:47.501Z,10
2019-04-10T17:51:19.752Z,10
2019-04-10T17:56:51.210Z,10
2019-04-10T18:02:23.365Z,10
2019-04-10T18:07:54.747Z,9.5
2019-04-10T18:13:26.742Z,9.5
2019-04-10T18:18:58.288Z,9.4
2019-04-10T18:24:30.405Z,9.7
2019-04-10T18:30:02.437Z,9.6
2019-04-10T18:35:35.285Z,9.5
2019-04-10T18:41:09.013Z,9.5
2019-04-10T18:46:40.172Z,9.5
2019-04-10T18:52:12.961Z,9.3
2019-04-10T18:57:45.360Z,9.2
2019-04-10T19:03:17.863Z,9.1
2019-04-10T19:09:02.623Z,9.1
2019-04-10T19:14:23.014Z,9.1
2019-04-10T19:19:56.741Z,9.1
2019-04-10T19:25:28.184Z,9.1
2019-04-10T19:31:08.479Z,9.1
2019-04-10T19:36:34.372Z,9.1
2019-04-10T19:42:05.918Z,9.2
2019-04-10T19:47:38.816Z,9.2
2019-04-10T19:53:11.195Z,9.2
2019-04-10T19:58:44.064Z,9.1
2019-04-10T20:04:17.232Z,9.2
2019-04-10T20:09:48.656Z,9
2019-04-10T20:15:21.214Z,9.1
2019-04-10T20:20:53.661Z,9
2019-04-10T20:26:27.212Z,9.1
2019-04-10T20:31:58.834Z,9.1
2019-04-10T20:37:31.370Z,9.2
2019-04-10T20:43:04.729Z,9.2
2019-04-10T20:48:38.320Z,9.2
2019-04-10T20:54:08.986Z,9.2
2019-04-10T20:59:42.492Z,9.1
2019-04-10T21:05:15.219Z,9.1
2019-04-10T21:10:47.199Z,9.1
2019-04-10T21:16:19.956Z,9.1
2019-04-10T21:21:52.077Z,9.2
2019-04-10T21:27:24.357Z,9.3
2019-04-10T21:32:58.277Z,9.3
2019-04-10T21:38:30.176Z,9.3
2019-04-10T21:44:02.306Z,9.3
2019-04-10T21:49:35.905Z,9.1
2019-04-10T21:55:07.320Z,9.2
2019-04-10T22:00:40.777Z,9.1
2019-04-10T22:06:13.341Z,9.1
2019-04-10T22:11:45.593Z,9.1
2019-04-10T22:17:17.430Z,9.1
2019-04-10T22:22:50.022Z,9.1
2019-04-10T22:28:23.229Z,9.1
2019-04-10T22:33:56.359Z,9.1
2019-04-10T22:39:27.708Z,9.1
2019-04-10T22:45:00.366Z,9
2019-04-10T22:50:32.752Z,9.2
2019-04-10T22:56:05.252Z,9
2019-04-10T23:01:37.829Z,9.1
2019-04-10T23:07:11.434Z,9
2019-04-10T23:12:51.769Z,9.2
2019-04-10T23:18:15.469Z,9.2
2019-04-10T23:23:48.871Z,9
2019-04-10T23:29:20.517Z,8.9
2019-04-10T23:34:53.138Z,8.8
2019-04-10T23:40:25.565Z,8.8
2019-04-10T23:45:58.051Z,8.8
2019-04-10T23:51:31.433Z,8.8
2019-04-10T23:57:07.510Z,8.9
